sensor_id;sensor_type;location;lat;lon;timestamp;P1;durP1;ratioP1;P2;durP2;ratioP2
63370;SDS011;72561;48.336;14.472;2024-02-15T00:00:13;6.97;;;5.22;;
63370;SDS011;72561;48.336;14.472;2024-02-15T00:03:36;7.53;;;4.47;;
63370;SDS011;72561;48.336;14.472;2024-02-15T00:05:17;7.68;;;5.15;;
63370;SDS011;72561;48.336;14.472;2024-02-15T00:06:58;6.85;;;5.07;;
63370;SDS011;72561;48.336;14.472;2024-02-15T00:08:39;7.70;;;5.35;;
63370;SDS011;72561;48.336;14.472;2024-02-15T00:10:21;6.90;;;5.07;;
63370;SDS011;72561;48.336;14.472;2024-02-15T00:12:02;7.55;;;5.32;;
63370;SDS011;72561;48.336;14.472;2024-02-15T00:13:45;7.10;;;5.63;;
63370;SDS011;72561;48.336;14.472;2024-02-15T00:15:26;6.70;;;5.32;;
63370;SDS011;72561;48.336;14.472;2024-02-15T00:17:07;6.13;;;4.75;;
63370;SDS011;72561;48.336;14.472;2024-02-15T00:18:48;7.18;;;5.70;;
63370;SDS011;72561;48.336;14.472;2024-02-15T00:20:29;6.75;;;5.50;;
63370;SDS011;72561;48.336;14.472;2024-02-15T00:22:10;7.30;;;5.40;;
63370;SDS011;72561;48.336;14.472;2024-02-15T00:23:51;7.38;;;5.43;;
63370;SDS011;72561;48.336;14.472;2024-02-15T00:25:32;7.53;;;5.13;;
63370;SDS011;72561;48.336;14.472;2024-02-15T00:27:14;6.97;;;5.75;;
63370;SDS011;72561;48.336;14.472;2024-02-15T00:28:56;7.82;;;5.45;;
63370;SDS011;72561;48.336;14.472;2024-02-15T00:30:37;6.50;;;4.90;;
63370;SDS011;72561;48.336;14.472;2024-02-15T00:32:18;6.60;;;5.25;;
63370;SDS011;72561;48.336;14.472;2024-02-15T00:33:59;6.25;;;5.05;;
63370;SDS011;72561;48.336;14.472;2024-02-15T00:35:41;6.55;;;5.65;;
63370;SDS011;72561;48.336;14.472;2024-02-15T00:37:22;6.60;;;5.20;;
63370;SDS011;72561;48.336;14.472;2024-02-15T00:39:03;6.20;;;5.13;;
63370;SDS011;72561;48.336;14.472;2024-02-15T00:40:44;7.53;;;5.80;;
63370;SDS011;72561;48.336;14.472;2024-02-15T00:42:25;6.90;;;5.00;;
63370;SDS011;72561;48.336;14.472;2024-02-15T00:44:07;6.05;;;4.93;;
63370;SDS011;72561;48.336;14.472;2024-02-15T00:45:49;6.32;;;4.68;;
63370;SDS011;72561;48.336;14.472;2024-02-15T00:47:30;6.53;;;5.20;;
63370;SDS011;72561;48.336;14.472;2024-02-15T00:49:12;6.00;;;4.95;;
63370;SDS011;72561;48.336;14.472;2024-02-15T00:50:53;7.05;;;5.43;;
63370;SDS011;72561;48.336;14.472;2024-02-15T00:52:34;7.22;;;5.50;;
63370;SDS011;72561;48.336;14.472;2024-02-15T00:54:15;6.87;;;5.13;;
63370;SDS011;72561;48.336;14.472;2024-02-15T00:55:56;5.97;;;4.68;;
63370;SDS011;72561;48.336;14.472;2024-02-15T00:57:37;6.60;;;4.80;;
63370;SDS011;72561;48.336;14.472;2024-02-15T00:59:20;7.20;;;5.45;;
63370;SDS011;72561;48.336;14.472;2024-02-15T01:01:01;6.18;;;4.70;;
63370;SDS011;72561;48.336;14.472;2024-02-15T01:02:42;7.70;;;4.95;;
63370;SDS011;72561;48.336;14.472;2024-02-15T01:04:23;6.75;;;4.97;;
63370;SDS011;72561;48.336;14.472;2024-02-15T01:06:04;6.97;;;5.57;;
63370;SDS011;72561;48.336;14.472;2024-02-15T01:07:45;7.18;;;5.43;;
63370;SDS011;72561;48.336;14.472;2024-02-15T01:09:26;6.03;;;4.82;;
63370;SDS011;72561;48.336;14.472;2024-02-15T01:11:07;6.40;;;5.20;;
63370;SDS011;72561;48.336;14.472;2024-02-15T01:12:49;6.50;;;4.88;;
63370;SDS011;72561;48.336;14.472;2024-02-15T01:14:31;7.25;;;4.88;;
63370;SDS011;72561;48.336;14.472;2024-02-15T01:16:14;7.22;;;5.07;;
63370;SDS011;72561;48.336;14.472;2024-02-15T01:17:56;7.07;;;5.00;;
63370;SDS011;72561;48.336;14.472;2024-02-15T01:19:37;6.47;;;5.25;;
63370;SDS011;72561;48.336;14.472;2024-02-15T01:21:18;6.78;;;5.03;;
63370;SDS011;72561;48.336;14.472;2024-02-15T01:22:59;7.35;;;5.38;;
63370;SDS011;72561;48.336;14.472;2024-02-15T01:24:40;6.88;;;4.95;;
63370;SDS011;72561;48.336;14.472;2024-02-15T01:26:22;7.50;;;4.97;;
63370;SDS011;72561;48.336;14.472;2024-02-15T01:28:03;6.55;;;5.03;;
63370;SDS011;72561;48.336;14.472;2024-02-15T01:29:46;6.35;;;4.45;;
63370;SDS011;72561;48.336;14.472;2024-02-15T01:33:08;6.00;;;4.50;;
63370;SDS011;72561;48.336;14.472;2024-02-15T01:34:49;5.38;;;4.50;;
63370;SDS011;72561;48.336;14.472;2024-02-15T01:36:30;6.20;;;4.80;;
63370;SDS011;72561;48.336;14.472;2024-02-15T01:38:12;5.70;;;4.45;;
63370;SDS011;72561;48.336;14.472;2024-02-15T01:39:53;7.05;;;5.05;;
63370;SDS011;72561;48.336;14.472;2024-02-15T01:41:34;7.07;;;5.10;;
63370;SDS011;72561;48.336;14.472;2024-02-15T01:43:15;6.43;;;4.32;;
63370;SDS011;72561;48.336;14.472;2024-02-15T01:44:57;5.78;;;4.60;;
63370;SDS011;72561;48.336;14.472;2024-02-15T01:46:38;6.35;;;4.63;;
63370;SDS011;72561;48.336;14.472;2024-02-15T01:48:20;6.32;;;4.68;;
63370;SDS011;72561;48.336;14.472;2024-02-15T01:50:01;6.68;;;4.97;;
63370;SDS011;72561;48.336;14.472;2024-02-15T01:51:43;6.10;;;4.57;;
63370;SDS011;72561;48.336;14.472;2024-02-15T01:53:25;6.47;;;4.43;;
63370;SDS011;72561;48.336;14.472;2024-02-15T01:55:06;6.47;;;4.82;;
63370;SDS011;72561;48.336;14.472;2024-02-15T01:56:48;6.75;;;4.97;;
63370;SDS011;72561;48.336;14.472;2024-02-15T01:58:29;5.60;;;4.20;;
63370;SDS011;72561;48.336;14.472;2024-02-15T02:00:13;6.80;;;4.45;;
63370;SDS011;72561;48.336;14.472;2024-02-15T02:01:58;6.60;;;4.85;;
63370;SDS011;72561;48.336;14.472;2024-02-15T02:03:39;6.07;;;4.32;;
63370;SDS011;72561;48.336;14.472;2024-02-15T02:05:20;5.68;;;4.57;;
63370;SDS011;72561;48.336;14.472;2024-02-15T02:07:01;6.18;;;4.40;;
63370;SDS011;72561;48.336;14.472;2024-02-15T02:08:42;6.03;;;4.53;;
63370;SDS011;72561;48.336;14.472;2024-02-15T02:10:23;5.95;;;4.35;;
63370;SDS011;72561;48.336;14.472;2024-02-15T02:12:05;5.63;;;4.45;;
63370;SDS011;72561;48.336;14.472;2024-02-15T02:13:46;6.18;;;4.13;;
63370;SDS011;72561;48.336;14.472;2024-02-15T02:15:29;6.55;;;4.57;;
63370;SDS011;72561;48.336;14.472;2024-02-15T02:17:12;6.25;;;4.30;;
63370;SDS011;72561;48.336;14.472;2024-02-15T02:18:54;5.88;;;4.40;;
63370;SDS011;72561;48.336;14.472;2024-02-15T02:22:16;5.63;;;4.28;;
63370;SDS011;72561;48.336;14.472;2024-02-15T02:25:44;5.90;;;4.05;;
63370;SDS011;72561;48.336;14.472;2024-02-15T02:27:25;6.93;;;4.53;;
63370;SDS011;72561;48.336;14.472;2024-02-15T02:29:07;6.53;;;4.57;;
63370;SDS011;72561;48.336;14.472;2024-02-15T02:30:49;5.78;;;4.57;;
63370;SDS011;72561;48.336;14.472;2024-02-15T02:32:31;7.75;;;5.00;;
63370;SDS011;72561;48.336;14.472;2024-02-15T02:34:13;6.03;;;4.60;;
63370;SDS011;72561;48.336;14.472;2024-02-15T02:35:54;5.40;;;4.20;;
63370;SDS011;72561;48.336;14.472;2024-02-15T02:37:35;6.35;;;4.57;;
63370;SDS011;72561;48.336;14.472;2024-02-15T02:39:16;6.00;;;4.65;;
63370;SDS011;72561;48.336;14.472;2024-02-15T02:40:59;6.95;;;4.40;;
63370;SDS011;72561;48.336;14.472;2024-02-15T02:42:46;7.03;;;5.22;;
63370;SDS011;72561;48.336;14.472;2024-02-15T02:44:29;6.00;;;4.53;;
63370;SDS011;72561;48.336;14.472;2024-02-15T02:46:10;6.38;;;4.63;;
63370;SDS011;72561;48.336;14.472;2024-02-15T02:47:51;5.22;;;3.97;;
63370;SDS011;72561;48.336;14.472;2024-02-15T02:49:34;6.10;;;4.50;;
63370;SDS011;72561;48.336;14.472;2024-02-15T02:51:16;5.90;;;4.53;;
63370;SDS011;72561;48.336;14.472;2024-02-15T02:52:57;6.68;;;3.95;;
63370;SDS011;72561;48.336;14.472;2024-02-15T02:54:38;6.20;;;4.57;;
63370;SDS011;72561;48.336;14.472;2024-02-15T02:56:21;6.72;;;4.85;;
63370;SDS011;72561;48.336;14.472;2024-02-15T02:58:02;6.28;;;4.65;;
63370;SDS011;72561;48.336;14.472;2024-02-15T02:59:43;7.00;;;4.57;;
63370;SDS011;72561;48.336;14.472;2024-02-15T03:01:24;6.18;;;4.55;;
63370;SDS011;72561;48.336;14.472;2024-02-15T03:03:06;5.68;;;3.78;;
63370;SDS011;72561;48.336;14.472;2024-02-15T03:04:47;6.32;;;4.50;;
63370;SDS011;72561;48.336;14.472;2024-02-15T03:06:28;5.13;;;4.30;;
63370;SDS011;72561;48.336;14.472;2024-02-15T03:08:09;6.05;;;4.60;;
63370;SDS011;72561;48.336;14.472;2024-02-15T03:09:51;5.40;;;3.53;;
63370;SDS011;72561;48.336;14.472;2024-02-15T03:11:34;5.93;;;4.22;;
63370;SDS011;72561;48.336;14.472;2024-02-15T03:13:15;6.07;;;4.53;;
63370;SDS011;72561;48.336;14.472;2024-02-15T03:14:56;5.50;;;4.13;;
63370;SDS011;72561;48.336;14.472;2024-02-15T03:16:37;5.93;;;4.63;;
63370;SDS011;72561;48.336;14.472;2024-02-15T03:18:18;5.18;;;3.88;;
63370;SDS011;72561;48.336;14.472;2024-02-15T03:19:59;6.40;;;4.82;;
63370;SDS011;72561;48.336;14.472;2024-02-15T03:21:40;6.10;;;4.22;;
63370;SDS011;72561;48.336;14.472;2024-02-15T03:23:21;5.80;;;4.72;;
63370;SDS011;72561;48.336;14.472;2024-02-15T03:25:02;6.82;;;4.63;;
63370;SDS011;72561;48.336;14.472;2024-02-15T03:26:46;6.18;;;4.00;;
63370;SDS011;72561;48.336;14.472;2024-02-15T03:28:27;6.05;;;4.55;;
63370;SDS011;72561;48.336;14.472;2024-02-15T03:30:08;6.03;;;4.20;;
63370;SDS011;72561;48.336;14.472;2024-02-15T03:31:50;6.30;;;4.70;;
63370;SDS011;72561;48.336;14.472;2024-02-15T03:33:31;5.60;;;4.32;;
63370;SDS011;72561;48.336;14.472;2024-02-15T03:35:12;5.63;;;4.20;;
63370;SDS011;72561;48.336;14.472;2024-02-15T03:36:53;6.50;;;4.68;;
63370;SDS011;72561;48.336;14.472;2024-02-15T03:38:34;7.05;;;4.28;;
63370;SDS011;72561;48.336;14.472;2024-02-15T03:40:15;6.15;;;4.50;;
63370;SDS011;72561;48.336;14.472;2024-02-15T03:41:58;6.20;;;4.15;;
63370;SDS011;72561;48.336;14.472;2024-02-15T03:43:40;5.78;;;4.43;;
63370;SDS011;72561;48.336;14.472;2024-02-15T03:45:21;6.03;;;4.40;;
63370;SDS011;72561;48.336;14.472;2024-02-15T03:47:02;6.43;;;4.70;;
63370;SDS011;72561;48.336;14.472;2024-02-15T03:48:44;5.95;;;4.03;;
63370;SDS011;72561;48.336;14.472;2024-02-15T03:50:25;6.72;;;4.32;;
63370;SDS011;72561;48.336;14.472;2024-02-15T03:52:06;6.10;;;4.63;;
63370;SDS011;72561;48.336;14.472;2024-02-15T03:53:47;5.32;;;4.00;;
63370;SDS011;72561;48.336;14.472;2024-02-15T03:55:28;5.65;;;4.57;;
63370;SDS011;72561;48.336;14.472;2024-02-15T03:57:11;5.97;;;4.70;;
63370;SDS011;72561;48.336;14.472;2024-02-15T03:58:52;5.93;;;4.20;;
63370;SDS011;72561;48.336;14.472;2024-02-15T04:00:33;7.45;;;4.63;;
63370;SDS011;72561;48.336;14.472;2024-02-15T04:02:14;6.28;;;4.38;;
63370;SDS011;72561;48.336;14.472;2024-02-15T04:03:55;5.97;;;4.82;;
63370;SDS011;72561;48.336;14.472;2024-02-15T04:05:36;6.70;;;4.60;;
63370;SDS011;72561;48.336;14.472;2024-02-15T04:07:17;5.20;;;3.95;;
63370;SDS011;72561;48.336;14.472;2024-02-15T04:08:59;5.88;;;4.35;;
63370;SDS011;72561;48.336;14.472;2024-02-15T04:10:40;5.60;;;4.15;;
63370;SDS011;72561;48.336;14.472;2024-02-15T04:12:23;5.00;;;3.78;;
63370;SDS011;72561;48.336;14.472;2024-02-15T04:14:04;5.78;;;4.38;;
63370;SDS011;72561;48.336;14.472;2024-02-15T04:15:45;5.65;;;3.88;;
63370;SDS011;72561;48.336;14.472;2024-02-15T04:17:26;5.88;;;4.30;;
63370;SDS011;72561;48.336;14.472;2024-02-15T04:19:07;5.40;;;3.92;;
63370;SDS011;72561;48.336;14.472;2024-02-15T04:20:48;6.38;;;4.47;;
63370;SDS011;72561;48.336;14.472;2024-02-15T04:22:29;5.22;;;3.83;;
63370;SDS011;72561;48.336;14.472;2024-02-15T04:24:10;6.25;;;4.18;;
63370;SDS011;72561;48.336;14.472;2024-02-15T04:25:51;5.25;;;4.03;;
63370;SDS011;72561;48.336;14.472;2024-02-15T04:27:34;5.20;;;3.90;;
63370;SDS011;72561;48.336;14.472;2024-02-15T04:29:15;5.88;;;3.97;;
63370;SDS011;72561;48.336;14.472;2024-02-15T04:30:56;5.63;;;3.78;;
63370;SDS011;72561;48.336;14.472;2024-02-15T04:32:37;5.65;;;4.25;;
63370;SDS011;72561;48.336;14.472;2024-02-15T04:34:18;6.78;;;4.15;;
63370;SDS011;72561;48.336;14.472;2024-02-15T04:36:00;5.15;;;3.80;;
63370;SDS011;72561;48.336;14.472;2024-02-15T04:37:41;5.87;;;4.20;;
63370;SDS011;72561;48.336;14.472;2024-02-15T04:39:22;6.18;;;3.67;;
63370;SDS011;72561;48.336;14.472;2024-02-15T04:41:03;5.45;;;3.97;;
63370;SDS011;72561;48.336;14.472;2024-02-15T04:42:46;5.15;;;3.72;;
63370;SDS011;72561;48.336;14.472;2024-02-15T04:44:27;5.82;;;4.05;;
63370;SDS011;72561;48.336;14.472;2024-02-15T04:46:08;5.40;;;4.00;;
63370;SDS011;72561;48.336;14.472;2024-02-15T04:47:49;5.55;;;4.10;;
63370;SDS011;72561;48.336;14.472;2024-02-15T04:49:30;4.82;;;3.42;;
63370;SDS011;72561;48.336;14.472;2024-02-15T04:51:12;5.60;;;3.90;;
63370;SDS011;72561;48.336;14.472;2024-02-15T04:52:53;5.50;;;3.70;;
63370;SDS011;72561;48.336;14.472;2024-02-15T04:54:34;5.68;;;4.00;;
63370;SDS011;72561;48.336;14.472;2024-02-15T04:56:15;5.85;;;4.32;;
63370;SDS011;72561;48.336;14.472;2024-02-15T04:57:58;6.60;;;4.03;;
63370;SDS011;72561;48.336;14.472;2024-02-15T04:59:39;5.78;;;4.20;;
63370;SDS011;72561;48.336;14.472;2024-02-15T05:01:20;5.97;;;4.22;;
63370;SDS011;72561;48.336;14.472;2024-02-15T05:03:01;5.43;;;3.95;;
63370;SDS011;72561;48.336;14.472;2024-02-15T05:04:44;5.60;;;4.35;;
63370;SDS011;72561;48.336;14.472;2024-02-15T05:06:25;5.22;;;4.15;;
63370;SDS011;72561;48.336;14.472;2024-02-15T05:08:06;5.90;;;4.22;;
63370;SDS011;72561;48.336;14.472;2024-02-15T05:09:47;5.13;;;4.03;;
63370;SDS011;72561;48.336;14.472;2024-02-15T05:11:29;6.30;;;4.93;;
63370;SDS011;72561;48.336;14.472;2024-02-15T05:13:12;6.70;;;4.45;;
63370;SDS011;72561;48.336;14.472;2024-02-15T05:14:53;6.05;;;4.53;;
63370;SDS011;72561;48.336;14.472;2024-02-15T05:16:34;7.25;;;5.07;;
63370;SDS011;72561;48.336;14.472;2024-02-15T05:18:15;8.40;;;5.07;;
63370;SDS011;72561;48.336;14.472;2024-02-15T05:19:56;7.07;;;5.18;;
63370;SDS011;72561;48.336;14.472;2024-02-15T05:21:38;6.88;;;5.15;;
63370;SDS011;72561;48.336;14.472;2024-02-15T05:23:20;8.65;;;5.68;;
63370;SDS011;72561;48.336;14.472;2024-02-15T05:25:02;7.68;;;5.15;;
63370;SDS011;72561;48.336;14.472;2024-02-15T05:26:44;9.68;;;6.00;;
63370;SDS011;72561;48.336;14.472;2024-02-15T05:28:27;9.93;;;6.18;;
63370;SDS011;72561;48.336;14.472;2024-02-15T05:30:08;9.85;;;5.70;;
63370;SDS011;72561;48.336;14.472;2024-02-15T05:31:51;9.35;;;5.40;;
63370;SDS011;72561;48.336;14.472;2024-02-15T05:33:32;10.30;;;5.47;;
63370;SDS011;72561;48.336;14.472;2024-02-15T05:35:13;10.23;;;5.68;;
63370;SDS011;72561;48.336;14.472;2024-02-15T05:36:54;9.68;;;5.95;;
63370;SDS011;72561;48.336;14.472;2024-02-15T05:38:35;10.75;;;5.75;;
63370;SDS011;72561;48.336;14.472;2024-02-15T05:40:17;9.13;;;6.03;;
63370;SDS011;72561;48.336;14.472;2024-02-15T05:41:58;9.93;;;5.65;;
63370;SDS011;72561;48.336;14.472;2024-02-15T05:43:40;15.48;;;5.80;;
63370;SDS011;72561;48.336;14.472;2024-02-15T05:45:28;9.38;;;5.82;;
63370;SDS011;72561;48.336;14.472;2024-02-15T05:47:10;10.40;;;5.70;;
63370;SDS011;72561;48.336;14.472;2024-02-15T05:48:52;9.95;;;6.00;;
63370;SDS011;72561;48.336;14.472;2024-02-15T05:50:33;7.85;;;5.20;;
63370;SDS011;72561;48.336;14.472;2024-02-15T05:52:14;9.27;;;5.30;;
63370;SDS011;72561;48.336;14.472;2024-02-15T05:53:55;8.23;;;5.38;;
63370;SDS011;72561;48.336;14.472;2024-02-15T05:55:36;9.30;;;5.63;;
63370;SDS011;72561;48.336;14.472;2024-02-15T05:57:18;11.25;;;6.05;;
63370;SDS011;72561;48.336;14.472;2024-02-15T05:59:00;7.50;;;5.30;;
63370;SDS011;72561;48.336;14.472;2024-02-15T06:00:42;9.13;;;5.40;;
63370;SDS011;72561;48.336;14.472;2024-02-15T06:02:24;9.55;;;5.05;;
63370;SDS011;72561;48.336;14.472;2024-02-15T06:04:05;8.90;;;5.22;;
63370;SDS011;72561;48.336;14.472;2024-02-15T06:05:48;10.52;;;5.93;;
63370;SDS011;72561;48.336;14.472;2024-02-15T06:07:29;9.13;;;5.82;;
63370;SDS011;72561;48.336;14.472;2024-02-15T06:09:11;7.50;;;5.47;;
63370;SDS011;72561;48.336;14.472;2024-02-15T06:10:52;8.32;;;5.80;;
63370;SDS011;72561;48.336;14.472;2024-02-15T06:12:34;8.15;;;5.80;;
63370;SDS011;72561;48.336;14.472;2024-02-15T06:14:16;8.73;;;5.30;;
63370;SDS011;72561;48.336;14.472;2024-02-15T06:15:57;8.43;;;5.82;;
63370;SDS011;72561;48.336;14.472;2024-02-15T06:17:38;8.07;;;5.78;;
63370;SDS011;72561;48.336;14.472;2024-02-15T06:19:19;8.75;;;5.68;;
63370;SDS011;72561;48.336;14.472;2024-02-15T06:21:00;7.68;;;5.65;;
63370;SDS011;72561;48.336;14.472;2024-02-15T06:22:42;9.20;;;5.65;;
63370;SDS011;72561;48.336;14.472;2024-02-15T06:24:23;7.30;;;5.40;;
63370;SDS011;72561;48.336;14.472;2024-02-15T06:26:04;9.05;;;6.25;;
63370;SDS011;72561;48.336;14.472;2024-02-15T06:27:45;8.18;;;5.45;;
63370;SDS011;72561;48.336;14.472;2024-02-15T06:29:28;7.63;;;5.47;;
63370;SDS011;72561;48.336;14.472;2024-02-15T06:31:10;7.30;;;5.22;;
63370;SDS011;72561;48.336;14.472;2024-02-15T06:32:52;8.23;;;5.30;;
63370;SDS011;72561;48.336;14.472;2024-02-15T06:34:33;8.57;;;5.28;;
63370;SDS011;72561;48.336;14.472;2024-02-15T06:36:14;8.52;;;5.53;;
63370;SDS011;72561;48.336;14.472;2024-02-15T06:37:55;6.50;;;5.25;;
63370;SDS011;72561;48.336;14.472;2024-02-15T06:39:36;7.22;;;5.22;;
63370;SDS011;72561;48.336;14.472;2024-02-15T06:41:17;7.32;;;5.30;;
63370;SDS011;72561;48.336;14.472;2024-02-15T06:42:59;6.75;;;5.03;;
63370;SDS011;72561;48.336;14.472;2024-02-15T06:44:41;7.22;;;5.50;;
63370;SDS011;72561;48.336;14.472;2024-02-15T06:46:22;7.43;;;5.40;;
63370;SDS011;72561;48.336;14.472;2024-02-15T06:48:04;6.93;;;5.28;;
63370;SDS011;72561;48.336;14.472;2024-02-15T06:49:46;7.55;;;5.30;;
63370;SDS011;72561;48.336;14.472;2024-02-15T06:51:27;6.60;;;4.95;;
63370;SDS011;72561;48.336;14.472;2024-02-15T06:53:08;9.50;;;6.15;;
63370;SDS011;72561;48.336;14.472;2024-02-15T06:54:49;8.35;;;6.28;;
63370;SDS011;72561;48.336;14.472;2024-02-15T06:56:30;9.57;;;6.35;;
63370;SDS011;72561;48.336;14.472;2024-02-15T06:58:16;10.43;;;7.40;;
63370;SDS011;72561;48.336;14.472;2024-02-15T06:59:59;13.05;;;8.48;;
63370;SDS011;72561;48.336;14.472;2024-02-15T07:03:21;10.38;;;7.55;;
63370;SDS011;72561;48.336;14.472;2024-02-15T07:05:02;12.80;;;9.00;;
63370;SDS011;72561;48.336;14.472;2024-02-15T07:06:44;12.77;;;9.40;;
63370;SDS011;72561;48.336;14.472;2024-02-15T07:08:25;13.15;;;9.70;;
63370;SDS011;72561;48.336;14.472;2024-02-15T07:10:07;13.63;;;9.90;;
63370;SDS011;72561;48.336;14.472;2024-02-15T07:11:49;12.60;;;10.02;;
63370;SDS011;72561;48.336;14.472;2024-02-15T07:13:30;13.23;;;10.48;;
63370;SDS011;72561;48.336;14.472;2024-02-15T07:15:13;12.35;;;9.75;;
63370;SDS011;72561;48.336;14.472;2024-02-15T07:16:54;12.25;;;9.90;;
63370;SDS011;72561;48.336;14.472;2024-02-15T07:18:35;12.93;;;10.18;;
63370;SDS011;72561;48.336;14.472;2024-02-15T07:20:16;13.40;;;10.63;;
63370;SDS011;72561;48.336;14.472;2024-02-15T07:21:58;12.98;;;9.73;;
63370;SDS011;72561;48.336;14.472;2024-02-15T07:23:39;10.75;;;9.20;;
63370;SDS011;72561;48.336;14.472;2024-02-15T07:25:20;12.48;;;9.57;;
63370;SDS011;72561;48.336;14.472;2024-02-15T07:27:01;12.25;;;9.63;;
63370;SDS011;72561;48.336;14.472;2024-02-15T07:28:42;11.88;;;9.07;;
63370;SDS011;72561;48.336;14.472;2024-02-15T07:30:26;12.23;;;9.32;;
63370;SDS011;72561;48.336;14.472;2024-02-15T07:32:08;11.93;;;8.80;;
63370;SDS011;72561;48.336;14.472;2024-02-15T07:35:30;10.95;;;8.80;;
63370;SDS011;72561;48.336;14.472;2024-02-15T07:37:12;11.02;;;8.20;;
63370;SDS011;72561;48.336;14.472;2024-02-15T07:38:53;10.98;;;8.30;;
63370;SDS011;72561;48.336;14.472;2024-02-15T07:40:34;10.30;;;7.95;;
63370;SDS011;72561;48.336;14.472;2024-02-15T07:42:16;10.32;;;7.85;;
63370;SDS011;72561;48.336;14.472;2024-02-15T07:43:57;9.70;;;7.85;;
63370;SDS011;72561;48.336;14.472;2024-02-15T07:45:40;10.63;;;7.63;;
63370;SDS011;72561;48.336;14.472;2024-02-15T07:47:22;9.55;;;7.25;;
63370;SDS011;72561;48.336;14.472;2024-02-15T07:49:04;10.27;;;8.25;;
63370;SDS011;72561;48.336;14.472;2024-02-15T07:50:46;9.88;;;7.20;;
63370;SDS011;72561;48.336;14.472;2024-02-15T07:52:27;10.02;;;6.85;;
63370;SDS011;72561;48.336;14.472;2024-02-15T07:54:09;8.90;;;6.32;;
63370;SDS011;72561;48.336;14.472;2024-02-15T07:55:50;8.80;;;6.53;;
63370;SDS011;72561;48.336;14.472;2024-02-15T07:57:31;8.85;;;6.90;;
63370;SDS011;72561;48.336;14.472;2024-02-15T07:59:12;8.05;;;6.53;;
63370;SDS011;72561;48.336;14.472;2024-02-15T08:00:55;10.68;;;6.70;;
63370;SDS011;72561;48.336;14.472;2024-02-15T08:02:36;9.07;;;6.72;;
63370;SDS011;72561;48.336;14.472;2024-02-15T08:04:18;7.63;;;5.97;;
63370;SDS011;72561;48.336;14.472;2024-02-15T08:06:00;9.33;;;6.67;;
63370;SDS011;72561;48.336;14.472;2024-02-15T08:09:25;7.20;;;5.13;;
63370;SDS011;72561;48.336;14.472;2024-02-15T08:11:06;8.15;;;6.10;;
63370;SDS011;72561;48.336;14.472;2024-02-15T08:12:47;7.57;;;5.90;;
63370;SDS011;72561;48.336;14.472;2024-02-15T08:14:28;8.35;;;5.85;;
63370;SDS011;72561;48.336;14.472;2024-02-15T08:16:10;8.18;;;6.20;;
63370;SDS011;72561;48.336;14.472;2024-02-15T08:17:51;8.20;;;5.68;;
63370;SDS011;72561;48.336;14.472;2024-02-15T08:19:33;9.48;;;5.82;;
63370;SDS011;72561;48.336;14.472;2024-02-15T08:21:14;8.85;;;5.72;;
63370;SDS011;72561;48.336;14.472;2024-02-15T08:22:55;7.45;;;5.63;;
63370;SDS011;72561;48.336;14.472;2024-02-15T08:24:36;7.43;;;5.93;;
63370;SDS011;72561;48.336;14.472;2024-02-15T08:26:17;7.80;;;6.13;;
63370;SDS011;72561;48.336;14.472;2024-02-15T08:27:58;8.13;;;5.93;;
63370;SDS011;72561;48.336;14.472;2024-02-15T08:29:39;7.72;;;5.50;;
63370;SDS011;72561;48.336;14.472;2024-02-15T08:31:22;8.40;;;6.13;;
63370;SDS011;72561;48.336;14.472;2024-02-15T08:33:04;7.78;;;5.63;;
63370;SDS011;72561;48.336;14.472;2024-02-15T08:34:45;7.05;;;5.15;;
63370;SDS011;72561;48.336;14.472;2024-02-15T08:36:26;7.60;;;5.32;;
63370;SDS011;72561;48.336;14.472;2024-02-15T08:38:07;8.00;;;5.45;;
63370;SDS011;72561;48.336;14.472;2024-02-15T08:39:48;6.50;;;4.95;;
63370;SDS011;72561;48.336;14.472;2024-02-15T08:41:29;7.28;;;5.68;;
63370;SDS011;72561;48.336;14.472;2024-02-15T08:43:11;6.18;;;5.07;;
63370;SDS011;72561;48.336;14.472;2024-02-15T08:44:52;6.00;;;5.20;;
63370;SDS011;72561;48.336;14.472;2024-02-15T08:46:34;7.55;;;5.68;;
63370;SDS011;72561;48.336;14.472;2024-02-15T08:48:15;7.25;;;5.45;;
63370;SDS011;72561;48.336;14.472;2024-02-15T08:49:57;7.15;;;5.28;;
63370;SDS011;72561;48.336;14.472;2024-02-15T08:51:38;6.90;;;5.57;;
63370;SDS011;72561;48.336;14.472;2024-02-15T08:53:19;7.30;;;5.93;;
63370;SDS011;72561;48.336;14.472;2024-02-15T08:55:00;6.38;;;4.88;;
63370;SDS011;72561;48.336;14.472;2024-02-15T08:56:41;6.93;;;5.38;;
63370;SDS011;72561;48.336;14.472;2024-02-15T08:58:22;7.60;;;5.20;;
63370;SDS011;72561;48.336;14.472;2024-02-15T09:00:04;6.53;;;5.15;;
63370;SDS011;72561;48.336;14.472;2024-02-15T09:01:49;6.45;;;4.90;;
63370;SDS011;72561;48.336;14.472;2024-02-15T09:03:31;6.68;;;4.93;;
63370;SDS011;72561;48.336;14.472;2024-02-15T09:05:12;6.28;;;5.07;;
63370;SDS011;72561;48.336;14.472;2024-02-15T09:06:53;6.35;;;4.85;;
63370;SDS011;72561;48.336;14.472;2024-02-15T09:08:35;7.03;;;5.57;;
63370;SDS011;72561;48.336;14.472;2024-02-15T09:10:16;6.25;;;4.90;;
63370;SDS011;72561;48.336;14.472;2024-02-15T09:12:00;6.90;;;5.18;;
63370;SDS011;72561;48.336;14.472;2024-02-15T09:13:42;7.05;;;4.82;;
63370;SDS011;72561;48.336;14.472;2024-02-15T09:15:23;6.40;;;5.03;;
63370;SDS011;72561;48.336;14.472;2024-02-15T09:17:05;7.67;;;4.77;;
63370;SDS011;72561;48.336;14.472;2024-02-15T09:20:27;6.30;;;4.40;;
63370;SDS011;72561;48.336;14.472;2024-02-15T09:22:08;6.10;;;4.32;;
63370;SDS011;72561;48.336;14.472;2024-02-15T09:23:50;6.80;;;5.00;;
63370;SDS011;72561;48.336;14.472;2024-02-15T09:25:31;6.45;;;4.63;;
63370;SDS011;72561;48.336;14.472;2024-02-15T09:27:12;6.35;;;4.95;;
63370;SDS011;72561;48.336;14.472;2024-02-15T09:28:53;7.68;;;4.85;;
63370;SDS011;72561;48.336;14.472;2024-02-15T09:30:34;6.10;;;4.50;;
63370;SDS011;72561;48.336;14.472;2024-02-15T09:32:17;6.90;;;5.00;;
63370;SDS011;72561;48.336;14.472;2024-02-15T09:33:58;7.05;;;5.20;;
63370;SDS011;72561;48.336;14.472;2024-02-15T09:35:39;6.55;;;4.50;;
63370;SDS011;72561;48.336;14.472;2024-02-15T09:37:20;7.47;;;5.03;;
63370;SDS011;72561;48.336;14.472;2024-02-15T09:39:01;5.82;;;4.47;;
63370;SDS011;72561;48.336;14.472;2024-02-15T09:40:43;6.55;;;4.72;;
63370;SDS011;72561;48.336;14.472;2024-02-15T09:42:28;5.85;;;4.65;;
63370;SDS011;72561;48.336;14.472;2024-02-15T09:44:09;5.47;;;4.13;;
63370;SDS011;72561;48.336;14.472;2024-02-15T09:45:50;7.18;;;5.25;;
63370;SDS011;72561;48.336;14.472;2024-02-15T09:47:33;6.15;;;4.43;;
63370;SDS011;72561;48.336;14.472;2024-02-15T09:49:16;5.85;;;4.32;;
63370;SDS011;72561;48.336;14.472;2024-02-15T09:50:57;6.00;;;4.53;;
63370;SDS011;72561;48.336;14.472;2024-02-15T09:52:42;6.03;;;4.18;;
63370;SDS011;72561;48.336;14.472;2024-02-15T09:54:30;7.35;;;4.90;;
63370;SDS011;72561;48.336;14.472;2024-02-15T09:56:13;6.45;;;4.28;;
63370;SDS011;72561;48.336;14.472;2024-02-15T09:59:46;6.75;;;4.55;;
63370;SDS011;72561;48.336;14.472;2024-02-15T10:01:35;5.82;;;4.30;;
63370;SDS011;72561;48.336;14.472;2024-02-15T10:03:20;6.78;;;4.22;;
63370;SDS011;72561;48.336;14.472;2024-02-15T10:05:10;6.32;;;4.20;;
63370;SDS011;72561;48.336;14.472;2024-02-15T10:06:55;5.75;;;4.07;;
63370;SDS011;72561;48.336;14.472;2024-02-15T10:08:38;6.20;;;4.40;;
63370;SDS011;72561;48.336;14.472;2024-02-15T10:10:22;5.88;;;4.00;;
63370;SDS011;72561;48.336;14.472;2024-02-15T10:12:05;5.72;;;4.43;;
63370;SDS011;72561;48.336;14.472;2024-02-15T10:13:46;6.25;;;4.63;;
63370;SDS011;72561;48.336;14.472;2024-02-15T10:15:28;6.47;;;4.43;;
63370;SDS011;72561;48.336;14.472;2024-02-15T10:17:11;5.28;;;4.15;;